sensor_id;sensor_type;location;lat;lon;timestamp;pressure;altitude;pressure_sealevel;temperature;humidity
77062;BME280;65989;51.686;5.138;2024-01-15T00:02:13;100517.38;;;1.74;100.00
77062;BME280;65989;51.686;5.138;2024-01-15T00:04:40;100508.56;;;1.61;100.00
77062;BME280;65989;51.686;5.138;2024-01-15T00:07:06;100515.59;;;1.54;100.00
77062;BME280;65989;51.686;5.138;2024-01-15T00:09:32;100512.16;;;1.47;100.00
77062;BME280;65989;51.686;5.138;2024-01-15T00:11:59;100501.31;;;1.37;100.00
77062;BME280;65989;51.686;5.138;2024-01-15T00:14:24;100498.91;;;1.28;100.00
77062;BME280;65989;51.686;5.138;2024-01-15T00:16:50;100490.66;;;1.18;100.00
77062;BME280;65989;51.686;5.138;2024-01-15T00:19:17;100488.06;;;1.11;100.00
77062;BME280;65989;51.686;5.138;2024-01-15T00:21:42;100485.22;;;1.06;100.00
77062;BME280;65989;51.686;5.138;2024-01-15T00:24:08;100478.81;;;1.02;100.00
77062;BME280;65989;51.686;5.138;2024-01-15T00:26:33;100484.19;;;1.00;100.00
77062;BME280;65989;51.686;5.138;2024-01-15T00:28:59;100486.41;;;1.03;100.00
77062;BME280;65989;51.686;5.138;2024-01-15T00:31:24;100481.41;;;1.09;100.00
77062;BME280;65989;51.686;5.138;2024-01-15T00:33:50;100480.22;;;1.11;100.00
77062;BME280;65989;51.686;5.138;2024-01-15T00:36:15;100480.00;;;1.13;100.00
77062;BME280;65989;51.686;5.138;2024-01-15T00:38:42;100476.78;;;1.11;100.00
77062;BME280;65989;51.686;5.138;2024-01-15T00:41:07;100464.97;;;1.08;100.00
77062;BME280;65989;51.686;5.138;2024-01-15T00:43:33;100463.75;;;1.04;100.00
77062;BME280;65989;51.686;5.138;2024-01-15T00:46:01;100463.16;;;1.02;100.00
77062;BME280;65989;51.686;5.138;2024-01-15T00:48:27;100467.53;;;1.01;100.00
77062;BME280;65989;51.686;5.138;2024-01-15T00:50:52;100461.31;;;1.02;100.00
77062;BME280;65989;51.686;5.138;2024-01-15T00:53:19;100454.53;;;1.08;100.00
77062;BME280;65989;51.686;5.138;2024-01-15T00:55:50;100453.91;;;1.06;100.00
77062;BME280;65989;51.686;5.138;2024-01-15T00:58:15;100462.31;;;1.01;100.00
77062;BME280;65989;51.686;5.138;2024-01-15T01:00:41;100456.72;;;0.91;100.00
77062;BME280;65989;51.686;5.138;2024-01-15T01:03:06;100458.72;;;0.82;100.00
77062;BME280;65989;51.686;5.138;2024-01-15T01:05:33;100456.28;;;0.74;100.00
77062;BME280;65989;51.686;5.138;2024-01-15T01:07:59;100452.06;;;0.66;100.00
77062;BME280;65989;51.686;5.138;2024-01-15T01:10:24;100452.44;;;0.63;100.00
77062;BME280;65989;51.686;5.138;2024-01-15T01:12:50;100452.22;;;0.58;100.00
77062;BME280;65989;51.686;5.138;2024-01-15T01:15:15;100449.56;;;0.51;100.00
77062;BME280;65989;51.686;5.138;2024-01-15T01:17:40;100445.94;;;0.46;100.00
77062;BME280;65989;51.686;5.138;2024-01-15T01:20:06;100442.72;;;0.43;100.00
77062;BME280;65989;51.686;5.138;2024-01-15T01:22:33;100440.91;;;0.37;100.00
77062;BME280;65989;51.686;5.138;2024-01-15T01:24:59;100443.72;;;0.36;100.00
77062;BME280;65989;51.686;5.138;2024-01-15T01:27:24;100436.91;;;0.35;100.00
77062;BME280;65989;51.686;5.138;2024-01-15T01:29:50;100437.28;;;0.32;100.00
77062;BME280;65989;51.686;5.138;2024-01-15T01:32:15;100447.72;;;0.32;100.00
77062;BME280;65989;51.686;5.138;2024-01-15T01:34:41;100444.88;;;0.26;100.00
77062;BME280;65989;51.686;5.138;2024-01-15T01:37:08;100442.09;;;0.28;100.00
77062;BME280;65989;51.686;5.138;2024-01-15T01:39:33;100449.53;;;0.31;100.00
77062;BME280;65989;51.686;5.138;2024-01-15T01:41:58;100443.50;;;0.31;100.00
77062;BME280;65989;51.686;5.138;2024-01-15T01:44:24;100451.13;;;0.32;100.00
77062;BME280;65989;51.686;5.138;2024-01-15T01:46:49;100449.72;;;0.36;100.00
77062;BME280;65989;51.686;5.138;2024-01-15T01:49:15;100453.56;;;0.40;100.00
77062;BME280;65989;51.686;5.138;2024-01-15T01:51:40;100450.16;;;0.40;100.00
77062;BME280;65989;51.686;5.138;2024-01-15T01:54:07;100449.72;;;0.36;100.00
77062;BME280;65989;51.686;5.138;2024-01-15T01:56:34;100443.50;;;0.31;100.00
77062;BME280;65989;51.686;5.138;2024-01-15T01:59:01;100441.09;;;0.29;100.00
77062;BME280;65989;51.686;5.138;2024-01-15T02:01:31;100441.47;;;0.26;100.00
77062;BME280;65989;51.686;5.138;2024-01-15T02:03:57;100446.25;;;0.22;100.00
77062;BME280;65989;51.686;5.138;2024-01-15T02:06:23;100442.03;;;0.14;100.00
77062;BME280;65989;51.686;5.138;2024-01-15T02:08:48;100438.03;;;0.12;100.00
77062;BME280;65989;51.686;5.138;2024-01-15T02:11:14;100417.50;;;0.02;100.00
77062;BME280;65989;51.686;5.138;2024-01-15T02:13:40;100433.97;;;0.09;100.00
77062;BME280;65989;51.686;5.138;2024-01-15T02:16:05;100429.59;;;0.10;100.00
77062;BME280;65989;51.686;5.138;2024-01-15T02:18:44;100454.25;;;0.14;100.00
77062;BME280;65989;51.686;5.138;2024-01-15T02:21:10;100441.41;;;0.12;100.00
77062;BME280;65989;51.686;5.138;2024-01-15T02:23:36;100438.41;;;0.09;100.00
77062;BME280;65989;51.686;5.138;2024-01-15T02:26:02;100435.59;;;0.10;100.00
77062;BME280;65989;51.686;5.138;2024-01-15T02:28:29;100430.16;;;0.05;100.00
77062;BME280;65989;51.686;5.138;2024-01-15T02:30:54;100435.34;;;0.05;100.00
77062;BME280;65989;51.686;5.138;2024-01-15T02:33:19;100433.38;;;0.07;100.00
77062;BME280;65989;51.686;5.138;2024-01-15T02:35:45;100443.78;;;0.07;100.00
77062;BME280;65989;51.686;5.138;2024-01-15T02:38:12;100443.59;;;0.09;100.00
77062;BME280;65989;51.686;5.138;2024-01-15T02:40:38;100436.78;;;0.08;100.00
77062;BME280;65989;51.686;5.138;2024-01-15T02:43:04;100436.34;;;0.04;100.00
77062;BME280;65989;51.686;5.138;2024-01-15T02:45:29;100431.16;;;0.04;100.00
77062;BME280;65989;51.686;5.138;2024-01-15T02:47:55;100445.41;;;0.08;100.00
77062;BME280;65989;51.686;5.138;2024-01-15T02:50:21;100434.38;;;0.06;100.00
77062;BME280;65989;51.686;5.138;2024-01-15T02:52:46;100436.59;;;0.09;100.00
77062;BME280;65989;51.686;5.138;2024-01-15T02:55:12;100431.59;;;0.08;100.00
77062;BME280;65989;51.686;5.138;2024-01-15T02:57:37;100437.97;;;0.05;100.00
77062;BME280;65989;51.686;5.138;2024-01-15T03:00:03;100428.75;;;0.03;100.00
77062;BME280;65989;51.686;5.138;2024-01-15T03:02:29;100425.50;;;-0.06;100.00
77062;BME280;65989;51.686;5.138;2024-01-15T03:04:57;100423.69;;;-0.06;100.00
77062;BME280;65989;51.686;5.138;2024-01-15T03:07:22;100423.84;;;-0.14;100.00
77062;BME280;65989;51.686;5.138;2024-01-15T03:09:48;100426.25;;;-0.12;100.00
77062;BME280;65989;51.686;5.138;2024-01-15T03:12:13;100428.63;;;-0.18;100.00
77062;BME280;65989;51.686;5.138;2024-01-15T03:14:38;100433.09;;;-0.11;100.00
77062;BME280;65989;51.686;5.138;2024-01-15T03:17:04;100424.84;;;-0.15;100.00
77062;BME280;65989;51.686;5.138;2024-01-15T03:19:29;100435.25;;;-0.15;100.00
77062;BME280;65989;51.686;5.138;2024-01-15T03:21:56;100431.84;;;-0.16;100.00
77062;BME280;65989;51.686;5.138;2024-01-15T03:24:21;100427.44;;;-0.15;100.00
77062;BME280;65989;51.686;5.138;2024-01-15T03:26:47;100433.69;;;-0.09;100.00
77062;BME280;65989;51.686;5.138;2024-01-15T03:29:12;100432.13;;;-0.04;100.00
77062;BME280;65989;51.686;5.138;2024-01-15T03:31:37;100433.97;;;0.03;100.00
77062;BME280;65989;51.686;5.138;2024-01-15T03:34:03;100432.13;;;0.03;100.00
77062;BME280;65989;51.686;5.138;2024-01-15T03:36:29;100426.56;;;0.06;100.00
77062;BME280;65989;51.686;5.138;2024-01-15T03:38:54;100433.81;;;0.18;100.00
77062;BME280;65989;51.686;5.138;2024-01-15T03:41:20;100425.63;;;0.21;100.00
77062;BME280;65989;51.686;5.138;2024-01-15T03:43:45;100425.22;;;0.24;100.00
77062;BME280;65989;51.686;5.138;2024-01-15T03:46:10;100414.19;;;0.22;100.00
77062;BME280;65989;51.686;5.138;2024-01-15T03:48:36;100418.63;;;0.28;100.00
77062;BME280;65989;51.686;5.138;2024-01-15T03:51:02;100413.81;;;0.32;100.00
77062;BME280;65989;51.686;5.138;2024-01-15T03:53:27;100410.22;;;0.33;100.00
77062;BME280;65989;51.686;5.138;2024-01-15T03:55:52;100414.66;;;0.39;100.00
77062;BME280;65989;51.686;5.138;2024-01-15T03:58:18;100402.25;;;0.41;100.00
77062;BME280;65989;51.686;5.138;2024-01-15T04:00:43;100407.47;;;0.48;100.00
77062;BME280;65989;51.686;5.138;2024-01-15T04:03:09;100398.84;;;0.54;100.00
77062;BME280;65989;51.686;5.138;2024-01-15T04:05:35;100402.28;;;0.61;100.00
77062;BME280;65989;51.686;5.138;2024-01-15T04:08:00;100398.47;;;0.64;100.00
77062;BME280;65989;51.686;5.138;2024-01-15T04:10:25;100402.09;;;0.69;100.00
77062;BME280;65989;51.686;5.138;2024-01-15T04:12:51;100390.88;;;0.76;100.00
77062;BME280;65989;51.686;5.138;2024-01-15T04:15:16;100387.69;;;0.80;100.00
77062;BME280;65989;51.686;5.138;2024-01-15T04:17:42;100396.69;;;0.84;100.00
77062;BME280;65989;51.686;5.138;2024-01-15T04:20:07;100389.47;;;0.86;100.00
77062;BME280;65989;51.686;5.138;2024-01-15T04:22:34;100389.69;;;0.85;100.00
77062;BME280;65989;51.686;5.138;2024-01-15T04:25:00;100391.28;;;0.86;100.00
77062;BME280;65989;51.686;5.138;2024-01-15T04:27:25;100383.47;;;0.86;100.00
77062;BME280;65989;51.686;5.138;2024-01-15T04:29:51;100379.44;;;0.83;100.00
77062;BME280;65989;51.686;5.138;2024-01-15T04:32:16;100381.47;;;0.81;100.00
77062;BME280;65989;51.686;5.138;2024-01-15T04:34:42;100376.81;;;0.77;100.00
77062;BME280;65989;51.686;5.138;2024-01-15T04:37:07;100367.19;;;0.70;100.00
77062;BME280;65989;51.686;5.138;2024-01-15T04:39:32;100368.59;;;0.66;100.00
77062;BME280;65989;51.686;5.138;2024-01-15T04:41:58;100361.97;;;0.64;100.00
77062;BME280;65989;51.686;5.138;2024-01-15T04:44:23;100367.00;;;0.65;100.00
77062;BME280;65989;51.686;5.138;2024-01-15T04:46:48;100361.78;;;0.72;100.00
77062;BME280;65989;51.686;5.138;2024-01-15T04:49:14;100375.22;;;0.76;100.00
77062;BME280;65989;51.686;5.138;2024-01-15T04:51:39;100378.03;;;0.81;100.00
77062;BME280;65989;51.686;5.138;2024-01-15T04:54:04;100379.44;;;0.83;100.00
77062;BME280;65989;51.686;5.138;2024-01-15T04:56:30;100370.59;;;0.84;100.00
77062;BME280;65989;51.686;5.138;2024-01-15T04:58:55;100367.59;;;0.87;100.00
77062;BME280;65989;51.686;5.138;2024-01-15T05:01:21;100362.00;;;0.84;100.00
77062;BME280;65989;51.686;5.138;2024-01-15T05:03:46;100356.97;;;0.76;100.00
77062;BME280;65989;51.686;5.138;2024-01-15T05:06:11;100351.94;;;0.67;100.00
77062;BME280;65989;51.686;5.138;2024-01-15T05:08:37;100359.75;;;0.67;100.00
77062;BME280;65989;51.686;5.138;2024-01-15T05:11:02;100360.56;;;0.68;100.00
77062;BME280;65989;51.686;5.138;2024-01-15T05:13:28;100355.13;;;0.69;100.00
77062;BME280;65989;51.686;5.138;2024-01-15T05:15:53;100352.34;;;0.71;100.00
77062;BME280;65989;51.686;5.138;2024-01-15T05:18:19;100350.94;;;0.75;100.00
77062;BME280;65989;51.686;5.138;2024-01-15T05:20:44;100346.31;;;0.70;100.00
77062;BME280;65989;51.686;5.138;2024-01-15T05:23:10;100351.34;;;0.72;100.00
77062;BME280;65989;51.686;5.138;2024-01-15T05:25:35;100354.16;;;0.77;100.00
77062;BME280;65989;51.686;5.138;2024-01-15T05:28:01;100358.16;;;0.80;100.00
77062;BME280;65989;51.686;5.138;2024-01-15T05:30:26;100361.00;;;0.78;100.00
77062;BME280;65989;51.686;5.138;2024-01-15T05:32:51;100356.34;;;0.73;100.00
77062;BME280;65989;51.686;5.138;2024-01-15T05:35:17;100336.50;;;0.59;100.00
77062;BME280;65989;51.686;5.138;2024-01-15T05:37:44;100346.91;;;0.52;100.00
77062;BME280;65989;51.686;5.138;2024-01-15T05:40:10;100348.31;;;0.48;100.00
77062;BME280;65989;51.686;5.138;2024-01-15T05:42:36;100352.31;;;0.44;100.00
77062;BME280;65989;51.686;5.138;2024-01-15T05:45:02;100361.53;;;0.47;100.00
77062;BME280;65989;51.686;5.138;2024-01-15T05:47:29;100357.94;;;0.48;100.00
77062;BME280;65989;51.686;5.138;2024-01-15T05:49:56;100354.13;;;0.50;100.00
77062;BME280;65989;51.686;5.138;2024-01-15T05:52:21;100345.28;;;0.51;100.00
77062;BME280;65989;51.686;5.138;2024-01-15T05:54:47;100346.31;;;0.57;100.00
77062;BME280;65989;51.686;5.138;2024-01-15T05:57:12;100348.72;;;0.58;100.00
77062;BME280;65989;51.686;5.138;2024-01-15T05:59:38;100342.50;;;0.59;100.00
77062;BME280;65989;51.686;5.138;2024-01-15T06:02:03;100337.28;;;0.59;100.00
77062;BME280;65989;51.686;5.138;2024-01-15T06:04:29;100330.69;;;0.64;100.00
77062;BME280;65989;51.686;5.138;2024-01-15T06:06:54;100341.72;;;0.66;100.00
77062;BME280;65989;51.686;5.138;2024-01-15T06:09:19;100340.50;;;0.68;100.00
77062;BME280;65989;51.686;5.138;2024-01-15T06:11:45;100337.09;;;0.68;100.00
77062;BME280;65989;51.686;5.138;2024-01-15T06:14:10;100331.66;;;0.69;100.00
77062;BME280;65989;51.686;5.138;2024-01-15T06:16:36;100333.88;;;0.66;100.00
77062;BME280;65989;51.686;5.138;2024-01-15T06:19:01;100331.69;;;0.63;100.00
77062;BME280;65989;51.686;5.138;2024-01-15T06:21:26;100325.47;;;0.57;100.00
77062;BME280;65989;51.686;5.138;2024-01-15T06:23:52;100314.81;;;0.58;100.00
77062;BME280;65989;51.686;5.138;2024-01-15T06:26:17;100322.47;;;0.60;100.00
77062;BME280;65989;51.686;5.138;2024-01-15T06:28:43;100324.06;;;0.61;100.00
77062;BME280;65989;51.686;5.138;2024-01-15T06:31:08;100329.06;;;0.63;100.00
77062;BME280;65989;51.686;5.138;2024-01-15T06:33:33;100327.06;;;0.65;100.00
77062;BME280;65989;51.686;5.138;2024-01-15T06:35:59;100325.84;;;0.67;100.00
77062;BME280;65989;51.686;5.138;2024-01-15T06:38:24;100332.69;;;0.68;100.00
77062;BME280;65989;51.686;5.138;2024-01-15T06:40:50;100329.69;;;0.65;100.00
77062;BME280;65989;51.686;5.138;2024-01-15T06:43:17;100329.69;;;0.58;100.00
77062;BME280;65989;51.686;5.138;2024-01-15T06:45:43;100331.47;;;0.51;100.00
77062;BME280;65989;51.686;5.138;2024-01-15T06:48:09;100330.84;;;0.42;100.00
77062;BME280;65989;51.686;5.138;2024-01-15T06:50:34;100320.81;;;0.39;100.00
77062;BME280;65989;51.686;5.138;2024-01-15T06:53:00;100328.84;;;0.44;100.00
77062;BME280;65989;51.686;5.138;2024-01-15T06:55:25;100332.69;;;0.48;100.00
77062;BME280;65989;51.686;5.138;2024-01-15T06:57:51;100329.66;;;0.51;100.00
77062;BME280;65989;51.686;5.138;2024-01-15T07:00:17;100327.84;;;0.52;100.00
77062;BME280;65989;51.686;5.138;2024-01-15T07:02:44;100329.84;;;0.56;100.00
77062;BME280;65989;51.686;5.138;2024-01-15T07:05:10;100326.06;;;0.59;100.00
77062;BME280;65989;51.686;5.138;2024-01-15T07:07:36;100324.06;;;0.61;100.00
77062;BME280;65989;51.686;5.138;2024-01-15T07:10:01;100315.44;;;0.61;100.00
77062;BME280;65989;51.686;5.138;2024-01-15T07:12:29;100328.06;;;0.64;100.00
77062;BME280;65989;51.686;5.138;2024-01-15T07:14:54;100335.88;;;0.64;100.00
77062;BME280;65989;51.686;5.138;2024-01-15T07:17:20;100337.50;;;0.65;100.00
77062;BME280;65989;51.686;5.138;2024-01-15T07:19:46;100343.31;;;0.67;100.00
77062;BME280;65989;51.686;5.138;2024-01-15T07:22:11;100343.09;;;0.68;100.00
77062;BME280;65989;51.686;5.138;2024-01-15T07:24:37;100330.88;;;0.69;100.00
77062;BME280;65989;51.686;5.138;2024-01-15T07:27:03;100343.09;;;0.68;100.00
77062;BME280;65989;51.686;5.138;2024-01-15T07:29:30;100326.47;;;0.69;100.00
77062;BME280;65989;51.686;5.138;2024-01-15T07:31:55;100322.06;;;0.70;100.00
77062;BME280;65989;51.686;5.138;2024-01-15T07:34:21;100327.47;;;0.68;100.00
77062;BME280;65989;51.686;5.138;2024-01-15T07:36:47;100325.47;;;0.64;100.00
77062;BME280;65989;51.686;5.138;2024-01-15T07:39:12;100331.50;;;0.64;100.00
77062;BME280;65989;51.686;5.138;2024-01-15T07:41:39;100339.50;;;0.63;100.00
77062;BME280;65989;51.686;5.138;2024-01-15T07:44:05;100343.72;;;0.64;100.00
77062;BME280;65989;51.686;5.138;2024-01-15T07:46:30;100343.72;;;0.64;100.00
77062;BME280;65989;51.686;5.138;2024-01-15T07:48:56;100347.53;;;0.68;100.00
77062;BME280;65989;51.686;5.138;2024-01-15T07:51:23;100356.97;;;0.69;100.00
77062;BME280;65989;51.686;5.138;2024-01-15T07:53:49;100366.00;;;0.73;100.00
77062;BME280;65989;51.686;5.138;2024-01-15T07:56:15;100368.59;;;0.73;100.00
77062;BME280;65989;51.686;5.138;2024-01-15T07:58:41;100378.03;;;0.74;100.00
77062;BME280;65989;51.686;5.138;2024-01-15T08:01:06;100376.22;;;0.74;100.00
77062;BME280;65989;51.686;5.138;2024-01-15T08:03:32;100363.19;;;0.74;100.00
77062;BME280;65989;51.686;5.138;2024-01-15T08:05:58;100367.00;;;0.79;100.00
77062;BME280;65989;51.686;5.138;2024-01-15T08:08:24;100354.16;;;0.77;100.00
77062;BME280;65989;51.686;5.138;2024-01-15T08:10:51;100351.56;;;0.77;100.00
77062;BME280;65989;51.686;5.138;2024-01-15T08:13:17;100358.78;;;0.82;100.00
77062;BME280;65989;51.686;5.138;2024-01-15T08:15:42;100364.38;;;0.85;100.00
77062;BME280;65989;51.686;5.138;2024-01-15T08:18:08;100363.97;;;0.88;100.00
77062;BME280;65989;51.686;5.138;2024-01-15T08:20:34;100357.59;;;0.91;100.00
77062;BME280;65989;51.686;5.138;2024-01-15T08:22:59;100355.38;;;0.95;100.00
77062;BME280;65989;51.686;5.138;2024-01-15T08:25:25;100357.78;;;0.96;100.00
77062;BME280;65989;51.686;5.138;2024-01-15T08:27:51;100359.38;;;0.97;100.00
77062;BME280;65989;51.686;5.138;2024-01-15T08:30:17;100355.19;;;0.96;100.00
77062;BME280;65989;51.686;5.138;2024-01-15T08:32:44;100354.34;;;0.96;100.00
77062;BME280;65989;51.686;5.138;2024-01-15T08:35:10;100358.78;;;0.95;100.00
77062;BME280;65989;51.686;5.138;2024-01-15T08:37:35;100359.56;;;0.96;100.00
77062;BME280;65989;51.686;5.138;2024-01-15T08:40:00;100365.63;;;0.96;100.00
77062;BME280;65989;51.686;5.138;2024-01-15T08:42:26;100358.38;;;0.98;100.00
77062;BME280;65989;51.686;5.138;2024-01-15T08:44:51;100351.13;;;1.00;100.00
77062;BME280;65989;51.686;5.138;2024-01-15T08:47:17;100341.91;;;0.98;100.00
77062;BME280;65989;51.686;5.138;2024-01-15T08:49:42;100343.91;;;0.96;100.00
77062;BME280;65989;51.686;5.138;2024-01-15T08:52:09;100339.91;;;0.93;100.00
77062;BME280;65989;51.686;5.138;2024-01-15T08:54:35;100331.28;;;0.86;100.00
77062;BME280;65989;51.686;5.138;2024-01-15T08:57:00;100333.50;;;0.82;100.00
77062;BME280;65989;51.686;5.138;2024-01-15T08:59:26;100338.31;;;0.79;100.00
77062;BME280;65989;51.686;5.138;2024-01-15T09:01:52;100339.31;;;0.78;100.00
77062;BME280;65989;51.686;5.138;2024-01-15T09:04:18;100342.72;;;0.78;100.00
77062;BME280;65989;51.686;5.138;2024-01-15T09:06:47;100341.13;;;0.77;100.00
77062;BME280;65989;51.686;5.138;2024-01-15T09:09:13;100334.09;;;0.71;100.00
77062;BME280;65989;51.686;5.138;2024-01-15T09:11:41;100343.91;;;0.69;100.00
77062;BME280;65989;51.686;5.138;2024-01-15T09:14:07;100335.50;;;0.60;100.00
77062;BME280;65989;51.686;5.138;2024-01-15T09:16:33;100344.91;;;0.54;100.00
77062;BME280;65989;51.686;5.138;2024-01-15T09:18:59;100352.31;;;0.51;100.00
77062;BME280;65989;51.686;5.138;2024-01-15T09:21:25;100351.94;;;0.47;100.00
77062;BME280;65989;51.686;5.138;2024-01-15T09:23:50;100361.75;;;0.45;100.00
77062;BME280;65989;51.686;5.138;2024-01-15T09:26:17;100350.91;;;0.41;100.00
77062;BME280;65989;51.686;5.138;2024-01-15T09:28:43;100359.53;;;0.42;100.00
77062;BME280;65989;51.686;5.138;2024-01-15T09:31:08;100358.94;;;0.40;100.00
77062;BME280;65989;51.686;5.138;2024-01-15T09:33:34;100361.13;;;0.43;100.00
77062;BME280;65989;51.686;5.138;2024-01-15T09:36:03;100367.75;;;0.46;100.00
77062;BME280;65989;51.686;5.138;2024-01-15T09:38:29;100367.56;;;0.47;100.00
77062;BME280;65989;51.686;5.138;2024-01-15T09:40:55;100363.16;;;0.48;100.00
77062;BME280;65989;51.686;5.138;2024-01-15T09:43:21;100363.53;;;0.51;100.00
77062;BME280;65989;51.686;5.138;2024-01-15T09:45:46;100366.78;;;0.60;100.00
77062;BME280;65989;51.686;5.138;2024-01-15T09:48:12;100372.81;;;0.74;100.00
77062;BME280;65989;51.686;5.138;2024-01-15T09:50:38;100370.22;;;0.94;100.00
77062;BME280;65989;51.686;5.138;2024-01-15T09:53:05;100377.44;;;1.06;100.00
77062;BME280;65989;51.686;5.138;2024-01-15T09:55:31;100377.84;;;1.16;100.00
77062;BME280;65989;51.686;5.138;2024-01-15T09:57:59;100385.84;;;1.28;100.00
77062;BME280;65989;51.686;5.138;2024-01-15T10:00:25;100381.41;;;1.55;100.00
77062;BME280;65989;51.686;5.138;2024-01-15T10:02:52;100396.81;;;1.77;100.00
77062;BME280;65989;51.686;5.138;2024-01-15T10:05:17;100391.78;;;1.82;100.00
77062;BME280;65989;51.686;5.138;2024-01-15T10:07:43;100395.19;;;1.83;100.00
77062;BME280;65989;51.686;5.138;2024-01-15T10:10:11;100401.03;;;1.78;100.00
77062;BME280;65989;51.686;5.138;2024-01-15T10:12:37;100414.16;;;1.64;100.00
77062;BME280;65989;51.686;5.138;2024-01-15T10:15:04;100406.50;;;1.49;100.00
77062;BME280;65989;51.686;5.138;2024-01-15T10:17:30;100405.34;;;1.32;100.00
77062;BME280;65989;51.686;5.138;2024-01-15T10:19:57;100400.13;;;1.05;100.00
77062;BME280;65989;51.686;5.138;2024-01-15T10:22:22;100396.91;;;0.89;100.00
77062;BME280;65989;51.686;5.138;2024-01-15T10:24:48;100401.09;;;0.91;100.00
77062;BME280;65989;51.686;5.138;2024-01-15T10:27:14;100388.50;;;0.94;100.00
77062;BME280;65989;51.686;5.138;2024-01-15T10:29:41;100380.44;;;0.89;100.00
77062;BME280;65989;51.686;5.138;2024-01-15T10:32:07;100372.22;;;0.85;100.00
77062;BME280;65989;51.686;5.138;2024-01-15T10:34:39;100372.03;;;0.94;100.00
77062;BME280;65989;51.686;5.138;2024-01-15T10:37:07;100361.19;;;0.90;100.00
77062;BME280;65989;51.686;5.138;2024-01-15T10:39:32;100380.84;;;0.93;100.00
77062;BME280;65989;51.686;5.138;2024-01-15T10:41:58;100388.88;;;0.98;100.00
77062;BME280;65989;51.686;5.138;2024-01-15T10:44:23;100387.25;;;1.03;100.00
77062;BME280;65989;51.686;5.138;2024-01-15T10:46:49;100384.47;;;1.12;100.00
77062;BME280;65989;51.686;5.138;2024-01-15T10:49:15;100382.44;;;1.41;100.00
77062;BME280;65989;51.686;5.138;2024-01-15T10:51:41;100394.78;;;1.86;100.00
77062;BME280;65989;51.686;5.138;2024-01-15T10:54:09;100390.22;;;2.27;100.00
77062;BME280;65989;51.686;5.138;2024-01-15T10:56:37;100388.81;;;2.56;100.00
77062;BME280;65989;51.686;5.138;2024-01-15T10:59:03;100381.56;;;2.65;100.00
77062;BME280;65989;51.686;5.138;2024-01-15T11:01:30;100390.44;;;2.57;100.00
77062;BME280;65989;51.686;5.138;2024-01-15T11:03:56;100389.94;;;2.35;100.00
77062;BME280;65989;51.686;5.138;2024-01-15T11:06:24;100398.91;;;2.14;100.00
77062;BME280;65989;51.686;5.138;2024-01-15T11:08:50;100412.84;;;1.94;100.00
77062;BME280;65989;51.686;5.138;2024-01-15T11:11:17;100399.44;;;1.77;100.00
77062;BME280;65989;51.686;5.138;2024-01-15T11:13:43;100384.59;;;1.64;100.00
77062;BME280;65989;51.686;5.138;2024-01-15T11:16:14;100389.63;;;1.59;100.00
77062;BME280;65989;51.686;5.138;2024-01-15T11:21:42;100390.03;;;1.62;100.00
77062;BME280;65989;51.686;5.138;2024-01-15T11:24:08;100395.03;;;1.64;100.00
77062;BME280;65989;51.686;5.138;2024-01-15T11:29:28;100393.75;;;1.93;100.00
77062;BME280;65989;51.686;5.138;2024-01-15T11:32:00;100392.50;;;2.09;100.00
77062;BME280;65989;51.686;5.138;2024-01-15T11:37:17;100390.81;;;2.29;100.00
77062;BME280;65989;51.686;5.138;2024-01-15T11:39:43;100390.22;;;2.27;100.00
77062;BME280;65989;51.686;5.138;2024-01-15T11:42:10;100393.38;;;2.35;100.00
77062;BME280;65989;51.686;5.138;2024-01-15T11:44:39;100387.69;;;2.45;100.00
77062;BME280;65989;51.686;5.138;2024-01-15T11:47:07;100391.56;;;2.68;100.00
77062;BME280;65989;51.686;5.138;2024-01-15T11:50:01;100395.97;;;2.74;100.00
77062;BME280;65989;51.686;5.138;2024-01-15T11:52:38;100384.97;;;2.65;100.00
77062;BME280;65989;51.686;5.138;2024-01-15T11:57:50;100385.97;;;2.64;100.00
77062;BME280;65989;51.686;5.138;2024-01-15T12:00:16;100397.09;;;2.53;100.00
77062;BME280;65989;51.686;5.138;2024-01-15T12:02:43;100392.16;;;2.38;100.00
77062;BME280;65989;51.686;5.138;2024-01-15T12:05:09;100401.09;;;2.23;100.00
77062;BME280;65989;51.686;5.138;2024-01-15T12:07:35;100402.53;;;2.13;100.00
77062;BME280;65989;51.686;5.138;2024-01-15T12:10:02;100403.56;;;2.05;100.00
77062;BME280;65989;51.686;5.138;2024-01-15T12:12:57;100404.78;;;2.02;100.00
77062;BME280;65989;51.686;5.138;2024-01-15T12:15:30;100400.59;;;1.94;100.00
77062;BME280;65989;51.686;5.138;2024-01-15T12:17:56;100411.25;;;1.93;100.00
77062;BME280;65989;51.686;5.138;2024-01-15T12:20:26;100407.19;;;2.04;100.00
77062;BME280;65989;51.686;5.138;2024-01-15T12:22:52;100429.16;;;2.35;100.00
77062;BME280;65989;51.686;5.138;2024-01-15T12:25:18;100398.81;;;2.34;100.00
77062;BME280;65989;51.686;5.138;2024-01-15T12:27:43;100429.81;;;2.30;100.00
77062;BME280;65989;51.686;5.138;2024-01-15T12:30:13;100452.97;;;2.20;100.00
77062;BME280;65989;51.686;5.138;2024-01-15T12:32:41;100449.22;;;2.02;100.00
77062;BME280;65989;51.686;5.138;2024-01-15T12:35:08;100467.16;;;1.52;100.00
77062;BME280;65989;51.686;5.138;2024-01-15T12:37:38;100468.97;;;1.04;100.00
77062;BME280;65989;51.686;5.138;2024-01-15T12:40:04;100469.88;;;0.69;100.00
77062;BME280;65989;51.686;5.138;2024-01-15T12:42:33;100482.22;;;0.40;100.00
77062;BME280;65989;51.686;5.138;2024-01-15T12:44:58;100474.69;;;0.17;100.00
77062;BME280;65989;51.686;5.138;2024-01-15T12:47:24;100466.69;;;0.12;100.00
77062;BME280;65989;51.686;5.138;2024-01-15T12:49:52;100471.69;;;0.13;100.00
77062;BME280;65989;51.686;5.138;2024-01-15T12:52:20;100473.28;;;0.14;100.00
77062;BME280;65989;51.686;5.138;2024-01-15T12:54:49;100479.50;;;0.13;100.00
77062;BME280;65989;51.686;5.138;2024-01-15T12:57:16;100486.16;;;0.16;100.00